Perito Moreno, Argentina
Current Conditions -  °F | °C
As of 5:00 PM on Monday 24 Nov 2014 (Local Time) from SCBA Reporting Station
Few Clouds Few Clouds  
Wind Chill: 57°   Ceiling: Unl
Heat Index: 57°   Visibility: 6mi
Dew Point: 39°   Wind: 35mph
Humidity: 51%   Direction: 300°WNW
Pressure: 29.85"   Gusts: 49mph
Location:  46.6°S, 70.93°W
Report Text: SCBA 242000Z 30030G43KT 9999 FEW030 14/04 Q1011
Loading
Personal Weather Stations






























Interactive Weather Map New forecast layout! Learn more

10-Day Weather Forecast

Advertisements
Track Severe Weather on mobile